createdAt,value
2023-02-06T00:02:02.213Z,2.90
2023-02-06T00:07:04.078Z,2.83
2023-02-06T00:12:06.235Z,2.15
2023-02-06T00:17:08.227Z,3.28
2023-02-06T00:22:10.858Z,3.03
2023-02-06T00:27:12.881Z,2.08
2023-02-06T00:32:14.892Z,1.85
2023-02-06T00:37:17.720Z,2.88
2023-02-06T00:42:19.590Z,1.83
2023-02-06T00:47:21.571Z,2.13
2023-02-06T00:52:23.511Z,2.83
2023-02-06T00:57:25.455Z,1.75
2023-02-06T01:02:27.505Z,1.70
2023-02-06T01:07:29.743Z,2.53
2023-02-06T01:12:31.676Z,2.05
2023-02-06T01:17:34.496Z,2.55
2023-02-06T01:22:37.035Z,1.83
2023-02-06T01:27:39.618Z,1.77
2023-02-06T01:32:42.343Z,2.08
2023-02-06T01:37:44.565Z,2.90
2023-02-06T01:42:46.629Z,3.80
2023-02-06T01:47:50.183Z,2.17
2023-02-06T01:52:52.375Z,2.35
2023-02-06T01:57:54.478Z,2.55
2023-02-06T02:02:56.585Z,2.25
2023-02-06T02:08:04.803Z,2.25
2023-02-06T02:13:06.600Z,2.28
2023-02-06T02:18:27.130Z,1.60
2023-02-06T02:24:07.083Z,1.80
2023-02-06T02:29:30.609Z,2.00
2023-02-06T02:34:50.876Z,2.47
2023-02-06T02:40:16.396Z,2.42
2023-02-06T02:45:29.195Z,1.75
2023-02-06T02:50:32.530Z,1.67
2023-02-06T02:55:35.293Z,2.47
2023-02-06T03:00:44.311Z,1.85
2023-02-06T03:06:00.874Z,2.92
2023-02-06T03:11:18.469Z,2.20
2023-02-06T03:16:25.792Z,3.38
2023-02-06T03:21:29.690Z,2.47
2023-02-06T03:26:33.295Z,3.95
2023-02-06T03:31:55.822Z,2.45
2023-02-06T03:36:57.749Z,2.20
2023-02-06T03:42:01.667Z,1.65
2023-02-06T03:47:06.375Z,2.90
2023-02-06T03:52:13.770Z,2.60
2023-02-06T03:57:19.665Z,1.92
2023-02-06T04:02:23.609Z,2.33
2023-02-06T04:07:28.150Z,1.83
2023-02-06T04:12:29.980Z,2.00
2023-02-06T04:17:49.646Z,1.75
2023-02-06T04:22:54.014Z,1.60
2023-02-06T04:27:56.122Z,1.75
2023-02-06T04:32:58.385Z,1.45
2023-02-06T04:38:00.502Z,1.30
2023-02-06T04:43:02.406Z,1.60
2023-02-06T04:48:04.582Z,1.30
2023-02-06T04:53:06.473Z,1.80
2023-02-06T04:58:08.685Z,1.48
2023-02-06T05:03:10.728Z,1.73
2023-02-06T05:08:12.520Z,1.23
2023-02-06T05:13:14.601Z,1.27
2023-02-06T05:18:16.816Z,1.73
2023-02-06T05:23:18.749Z,1.48
2023-02-06T05:28:20.805Z,2.03
2023-02-06T05:33:23.306Z,1.42
2023-02-06T05:38:25.249Z,1.48
2023-02-06T05:43:27.707Z,1.60
2023-02-06T05:48:30.899Z,1.48
2023-02-06T05:53:33.017Z,1.77
2023-02-06T05:58:35.201Z,1.25
2023-02-06T06:03:38.778Z,1.45
2023-02-06T06:08:40.946Z,1.52
2023-02-06T06:13:42.900Z,1.58
2023-02-06T06:18:44.685Z,1.00
2023-02-06T06:23:46.572Z,1.60
2023-02-06T06:28:48.794Z,1.40
2023-02-06T06:33:50.808Z,2.33
2023-02-06T06:38:53.061Z,1.80
2023-02-06T06:43:56.911Z,1.98
2023-02-06T06:48:58.984Z,1.52
2023-02-06T06:54:00.786Z,1.52
2023-02-06T06:59:02.889Z,1.48
2023-02-06T07:04:05.213Z,1.38
2023-02-06T07:09:07.125Z,1.85
2023-02-06T07:14:09.267Z,1.42
2023-02-06T07:19:11.351Z,1.52
2023-02-06T07:24:13.149Z,1.85
2023-02-06T07:29:15.005Z,1.73
2023-02-06T07:34:17.162Z,1.73
2023-02-06T07:39:19.137Z,1.77
2023-02-06T07:44:21.068Z,2.03
2023-02-06T07:49:23.182Z,1.77
2023-02-06T07:54:25.033Z,1.85
2023-02-06T07:59:26.909Z,1.67
2023-02-06T08:04:35.414Z,1.20
2023-02-06T08:09:37.453Z,2.15
2023-02-06T08:14:39.199Z,1.10
2023-02-06T08:19:41.373Z,2.25
2023-02-06T08:24:43.247Z,1.27
2023-02-06T08:29:45.535Z,1.55
2023-02-06T08:34:47.416Z,1.20
2023-02-06T08:39:49.198Z,1.17
2023-02-06T08:44:52.711Z,1.30
2023-02-06T08:49:54.981Z,1.85
2023-02-06T08:54:56.819Z,1.90
2023-02-06T08:59:58.904Z,2.20
2023-02-06T09:05:00.761Z,1.85
2023-02-06T09:10:02.680Z,1.92
2023-02-06T09:15:05.573Z,1.70
2023-02-06T09:20:08.061Z,1.77
2023-02-06T09:25:10.585Z,2.00
2023-02-06T09:30:14.961Z,1.42
2023-02-06T09:35:17.077Z,2.50
2023-02-06T09:40:25.088Z,1.23
2023-02-06T09:45:30.280Z,1.30
2023-02-06T09:50:48.329Z,1.70
2023-02-06T09:55:58.736Z,1.83
2023-02-06T10:01:27.449Z,1.80
2023-02-06T10:06:45.433Z,1.58
2023-02-06T10:11:58.724Z,1.35
2023-02-06T10:17:04.367Z,1.08
2023-02-06T10:22:21.440Z,1.20
2023-02-06T10:27:23.262Z,0.98
2023-02-06T10:33:03.321Z,1.55
2023-02-06T10:38:39.058Z,1.13
2023-02-06T10:44:04.612Z,1.42
2023-02-06T10:49:22.147Z,1.42
2023-02-06T10:54:31.581Z,1.50
2023-02-06T10:59:38.405Z,1.40
2023-02-06T11:04:45.349Z,1.23
2023-02-06T11:09:47.286Z,1.63
2023-02-06T11:14:51.024Z,1.17
2023-02-06T11:19:53.841Z,1.75
2023-02-06T11:25:08.221Z,1.08
2023-02-06T11:30:33.754Z,1.10
2023-02-06T11:35:47.652Z,1.08
2023-02-06T11:41:02.432Z,1.10
2023-02-06T11:46:19.446Z,1.00
2023-02-06T11:51:22.755Z,1.52
2023-02-06T11:56:25.362Z,1.00
2023-02-06T12:01:27.337Z,1.58
2023-02-06T12:06:38.712Z,1.40
2023-02-06T12:11:53.908Z,1.42
2023-02-06T12:16:56.771Z,1.42
2023-02-06T12:22:04.523Z,1.10
2023-02-06T12:27:17.170Z,1.20
2023-02-06T12:32:29.735Z,1.02
2023-02-06T12:37:43.003Z,1.23
2023-02-06T12:42:54.928Z,1.20
2023-02-06T12:48:05.075Z,1.58
2023-02-06T12:53:26.559Z,1.73
2023-02-06T12:58:37.065Z,1.50
2023-02-06T13:04:04.976Z,1.52
2023-02-06T13:09:08.330Z,1.63
2023-02-06T13:14:20.803Z,1.25
2023-02-06T13:19:51.866Z,2.45
2023-02-06T13:24:57.602Z,2.00
2023-02-06T13:30:17.878Z,2.03
2023-02-06T13:35:24.377Z,2.33
2023-02-06T13:40:26.943Z,2.85
2023-02-06T13:45:52.965Z,2.53
2023-02-06T13:51:17.335Z,3.28
2023-02-06T13:56:38.680Z,2.38
2023-02-06T14:01:40.852Z,2.63
2023-02-06T14:06:45.864Z,2.50
2023-02-06T14:12:18.995Z,1.30
2023-02-06T14:17:47.618Z,2.65
2023-02-06T14:23:03.281Z,2.53
2023-02-06T14:28:24.098Z,2.78
2023-02-06T14:33:44.849Z,2.72
2023-02-06T14:39:03.761Z,3.10
2023-02-06T14:44:19.504Z,2.00
2023-02-06T14:49:30.121Z,2.60
2023-02-06T14:54:39.112Z,1.70
2023-02-06T14:59:54.246Z,2.45
2023-02-06T15:04:57.591Z,1.98
2023-02-06T15:10:10.303Z,1.90
2023-02-06T15:15:26.664Z,2.17
2023-02-06T15:20:43.515Z,1.35
2023-02-06T15:25:54.245Z,2.10
2023-02-06T15:30:59.223Z,1.65
2023-02-06T15:36:03.883Z,1.60
2023-02-06T15:41:08.737Z,1.65
2023-02-06T15:46:10.962Z,1.70
2023-02-06T15:51:30.533Z,2.22
2023-02-06T15:56:35.562Z,1.95
2023-02-06T16:01:41.711Z,2.03
2023-02-06T16:06:44.602Z,1.80
2023-02-06T16:11:52.113Z,1.70
2023-02-06T16:17:00.040Z,1.38
2023-02-06T16:22:14.641Z,1.55
2023-02-06T16:27:21.040Z,1.52
2023-02-06T16:32:31.657Z,1.95
2023-02-06T16:37:33.506Z,2.30
2023-02-06T16:42:38.105Z,2.67
2023-02-06T16:47:40.160Z,3.03
2023-02-06T16:52:47.702Z,2.38
2023-02-06T16:57:53.088Z,2.53
2023-02-06T17:02:55.458Z,2.67
2023-02-06T17:07:57.376Z,2.58
2023-02-06T17:12:59.404Z,2.10
2023-02-06T17:18:01.420Z,1.75
2023-02-06T17:23:04.128Z,2.08
2023-02-06T17:28:08.006Z,2.38
2023-02-06T17:33:09.884Z,1.55
2023-02-06T17:38:12.528Z,2.25
2023-02-06T17:43:15.539Z,1.58
2023-02-06T17:48:17.500Z,2.65
2023-02-06T17:53:19.493Z,1.95
2023-02-06T17:58:21.578Z,2.05
2023-02-06T18:03:23.486Z,1.73
2023-02-06T18:08:25.520Z,3.53
2023-02-06T18:13:28.947Z,3.00
2023-02-06T18:18:31.534Z,2.13
2023-02-06T18:23:33.540Z,2.85
2023-02-06T18:28:37.453Z,2.17
2023-02-06T18:33:39.259Z,2.20
2023-02-06T18:38:41.244Z,3.28
2023-02-06T18:43:43.398Z,3.05
2023-02-06T18:48:45.248Z,2.22
2023-02-06T18:53:47.373Z,2.08
2023-02-06T18:58:49.522Z,1.50
2023-02-06T19:03:52.958Z,1.50
2023-02-06T19:08:54.882Z,2.33
2023-02-06T19:13:57.064Z,1.83
2023-02-06T19:18:59.344Z,1.52
2023-02-06T19:24:01.366Z,1.50
2023-02-06T19:29:03.380Z,1.25
2023-02-06T19:34:05.381Z,1.27
2023-02-06T19:39:09.895Z,1.23
2023-02-06T19:44:13.813Z,1.35
2023-02-06T19:49:15.828Z,1.50
2023-02-06T19:54:18.289Z,1.20
2023-02-06T19:59:22.898Z,1.58
2023-02-06T20:04:28.224Z,1.52
2023-02-06T20:09:30.991Z,1.58
2023-02-06T20:14:32.876Z,1.17
2023-02-06T20:19:34.750Z,1.08
2023-02-06T20:24:36.735Z,1.00
2023-02-06T20:29:40.339Z,1.17
2023-02-06T20:34:42.681Z,1.30
2023-02-06T20:39:44.685Z,0.98
2023-02-06T20:44:46.977Z,1.25
2023-02-06T20:49:48.921Z,1.58
2023-02-06T20:54:50.865Z,1.95
2023-02-06T20:59:52.811Z,1.00
2023-02-06T21:04:55.682Z,1.35
2023-02-06T21:09:57.785Z,1.02
2023-02-06T21:14:59.670Z,0.90
2023-02-06T21:20:01.565Z,0.88
2023-02-06T21:25:04.422Z,1.10
2023-02-06T21:30:06.953Z,1.00
2023-02-06T21:35:10.677Z,1.27
2023-02-06T21:40:12.525Z,1.08
2023-02-06T21:45:14.599Z,0.90
2023-02-06T21:50:16.559Z,0.90
2023-02-06T21:55:18.551Z,1.27
2023-02-06T22:00:20.579Z,1.20
2023-02-06T22:05:22.962Z,0.88
2023-02-06T22:10:25.184Z,1.10
2023-02-06T22:15:27.155Z,1.50
2023-02-06T22:20:29.134Z,0.95
2023-02-06T22:25:31.289Z,0.80
2023-02-06T22:30:33.247Z,0.98
2023-02-06T22:35:39.902Z,0.80
2023-02-06T22:40:41.791Z,1.40
2023-02-06T22:45:43.747Z,1.10
2023-02-06T22:50:45.617Z,0.77
2023-02-06T22:56:06.053Z,1.02
2023-02-06T23:01:07.965Z,1.23
2023-02-06T23:06:12.046Z,0.80
2023-02-06T23:11:14.748Z,1.30
2023-02-06T23:16:17.035Z,0.95
2023-02-06T23:21:21.359Z,1.60
2023-02-06T23:26:23.350Z,1.25
2023-02-06T23:31:27.196Z,1.15
2023-02-06T23:36:29.886Z,0.80
2023-02-06T23:41:32.818Z,0.65
2023-02-06T23:46:36.573Z,1.13
2023-02-06T23:51:38.882Z,0.90
2023-02-06T23:56:41.266Z,0.90
